Time;durP1;ratioP1;P1;durP2;ratioP2;P2;SDS_P1;SDS_P2;PMS_P1;PMS_P2;Temp;Humidity;BMP_temperature;BMP_pressure;BME280_temperature;BME280_humidity;BME280_pressure;Samples;Min_cycle;Max_cycle;Signal;HPM_P1;HPM_P2
2024/03/06 00:00:08;;;;;;;33.30;20.33;;;7.20;99.90;;;;;;5017423;28;20414;-70
2024/03/06 00:02:35;;;;;;;35.50;22.40;;;7.10;99.90;;;;;;5019032;28;20457;-70
2024/03/06 00:05:02;;;;;;;35.70;22.57;;;7.20;99.90;;;;;;5012871;28;20445;-69
2024/03/06 00:07:27;;;;;;;35.00;22.47;;;7.10;99.90;;;;;;5014430;28;20438;-70
2024/03/06 00:09:53;;;;;;;31.30;19.93;;;7.10;99.90;;;;;;5019474;28;20469;-68
2024/03/06 00:12:19;;;;;;;27.37;20.40;;;7.00;99.90;;;;;;5012057;28;20183;-69
2024/03/06 00:14:44;;;;;;;34.57;21.90;;;7.00;99.90;;;;;;5014564;28;20198;-70
2024/03/06 00:17:10;;;;;;;36.60;22.50;;;6.90;99.90;;;;;;5020342;28;20712;-70
2024/03/06 00:19:36;;;;;;;35.57;23.67;;;6.80;99.90;;;;;;5011594;28;20404;-71
2024/03/06 00:22:02;;;;;;;37.87;22.13;;;6.80;99.90;;;;;;5017965;28;20290;-70
2024/03/06 00:24:28;;;;;;;34.10;22.00;;;6.80;99.90;;;;;;5018363;28;20198;-69
2024/03/06 00:26:54;;;;;;;38.60;26.53;;;6.80;99.90;;;;;;5016035;28;20442;-70
2024/03/06 00:29:19;;;;;;;35.00;22.77;;;6.80;99.90;;;;;;5011612;28;20668;-70
2024/03/06 00:31:46;;;;;;;35.50;23.67;;;6.80;99.90;;;;;;4988639;28;20415;-69
2024/03/06 00:34:13;;;;;;;35.60;24.13;;;6.90;99.90;;;;;;5009967;28;20191;-70
2024/03/06 00:36:46;;;;;;;38.10;22.60;;;7.00;99.90;;;;;;5018974;28;20722;-70
2024/03/06 00:39:14;;;;;;;28.40;20.07;;;7.00;99.90;;;;;;5019310;28;20913;-68
2024/03/06 00:41:40;;;;;;;31.83;18.60;;;7.00;99.90;;;;;;5014655;28;20819;-69
2024/03/06 00:44:06;;;;;;;25.87;17.30;;;7.10;99.90;;;;;;5010870;28;20457;-72
2024/03/06 00:46:31;;;;;;;24.20;16.20;;;7.10;99.90;;;;;;5018173;28;20473;-71
2024/03/06 00:48:57;;;;;;;27.77;19.30;;;7.20;99.90;;;;;;5006394;28;20191;-71
2024/03/06 00:51:23;;;;;;;29.87;19.53;;;7.20;99.90;;;;;;5018073;28;20234;-69
2024/03/06 00:53:48;;;;;;;28.17;20.40;;;7.20;99.90;;;;;;5017222;28;20246;-72
2024/03/06 00:56:14;;;;;;;31.03;18.37;;;7.20;99.90;;;;;;5017694;28;20725;-68
2024/03/06 00:58:39;;;;;;;26.77;17.77;;;7.20;99.90;;;;;;5010508;28;20199;-68
2024/03/06 01:01:05;;;;;;;24.67;15.90;;;7.20;99.90;;;;;;5016843;28;20198;-69
2024/03/06 01:03:30;;;;;;;22.27;15.73;;;7.20;99.90;;;;;;5011792;28;20219;-71
2024/03/06 01:05:57;;;;;;;21.30;14.73;;;7.10;99.90;;;;;;5017548;28;20312;-72
2024/03/06 01:08:24;;;;;;;19.70;13.40;;;7.10;99.90;;;;;;5017041;28;20442;-68
2024/03/06 01:10:53;;;;;;;21.50;14.23;;;7.00;99.90;;;;;;5017188;28;20633;-68
2024/03/06 01:13:20;;;;;;;17.10;12.20;;;6.90;99.90;;;;;;5009937;28;20414;-68
2024/03/06 01:15:46;;;;;;;17.77;12.47;;;6.80;99.90;;;;;;5017004;28;20445;-70
2024/03/06 01:18:11;;;;;;;23.83;16.07;;;6.60;99.90;;;;;;5012159;28;20711;-69
2024/03/06 01:20:37;;;;;;;23.43;15.40;;;6.60;99.90;;;;;;5018783;28;20207;-69
2024/03/06 01:23:03;;;;;;;25.27;14.63;;;6.40;99.90;;;;;;5021628;28;20206;-68
2024/03/06 01:25:29;;;;;;;22.17;13.90;;;6.30;99.90;;;;;;5020963;28;20191;-67
2024/03/06 01:27:54;;;;;;;21.87;13.27;;;6.20;99.90;;;;;;5013262;28;20429;-69
2024/03/06 01:30:20;;;;;;;25.43;15.37;;;6.10;99.90;;;;;;5019984;28;20191;-67
2024/03/06 01:32:46;;;;;;;22.47;13.60;;;6.10;99.90;;;;;;5016642;28;20482;-68
2024/03/06 01:35:11;;;;;;;19.23;12.37;;;6.10;99.90;;;;;;5012850;28;20464;-68
2024/03/06 01:37:37;;;;;;;23.00;14.17;;;6.00;99.90;;;;;;5018200;28;20273;-68
2024/03/06 01:40:07;;;;;;;18.80;12.20;;;5.90;99.90;;;;;;5017115;28;20478;-69
2024/03/06 01:42:33;;;;;;;18.43;11.37;;;5.80;99.90;;;;;;5012770;28;20219;-67
2024/03/06 01:44:59;;;;;;;19.23;11.10;;;5.70;99.90;;;;;;5012972;28;20447;-69
2024/03/06 01:47:24;;;;;;;16.07;9.60;;;5.60;99.90;;;;;;5019274;28;20438;-69
2024/03/06 01:49:50;;;;;;;20.97;12.73;;;5.60;99.90;;;;;;5009808;28;20202;-69
2024/03/06 01:52:17;;;;;;;16.57;10.20;;;5.60;99.90;;;;;;5012067;28;20226;-68
2024/03/06 01:54:44;;;;;;;22.43;12.40;;;5.50;99.90;;;;;;5016294;28;20202;-68
2024/03/06 01:57:13;;;;;;;18.20;11.93;;;5.50;99.90;;;;;;5013687;28;20511;-70
2024/03/06 01:59:39;;;;;;;26.17;16.03;;;5.50;99.90;;;;;;4997627;28;20509;-70
2024/03/06 02:02:07;;;;;;;27.27;16.70;;;5.50;99.90;;;;;;4990094;28;20426;-69
2024/03/06 02:04:33;;;;;;;27.17;16.00;;;5.50;99.90;;;;;;4994016;28;20434;-68
2024/03/06 02:06:59;;;;;;;28.03;16.13;;;5.50;99.90;;;;;;5010124;28;20457;-70
2024/03/06 02:09:24;;;;;;;39.70;21.20;;;5.50;99.90;;;;;;5017464;28;20198;-69
2024/03/06 02:11:50;;;;;;;31.93;18.80;;;5.50;99.90;;;;;;5013836;28;20207;-68
2024/03/06 02:14:16;;;;;;;34.67;19.03;;;5.50;99.90;;;;;;5002916;28;20242;-68
2024/03/06 02:16:41;;;;;;;33.37;19.27;;;5.50;99.90;;;;;;5014425;28;20215;-68
2024/03/06 02:19:08;;;;;;;26.07;16.30;;;5.50;99.90;;;;;;4984533;28;20435;-67
2024/03/06 02:21:33;;;;;;;28.70;15.60;;;5.50;99.90;;;;;;5014107;28;20274;-68
2024/03/06 02:23:59;;;;;;;27.20;15.37;;;5.50;99.90;;;;;;5011873;28;20984;-70
2024/03/06 02:26:25;;;;;;;28.30;15.60;;;5.60;99.90;;;;;;5014113;28;20294;-67
2024/03/06 02:28:52;;;;;;;21.97;14.50;;;5.60;99.90;;;;;;5003695;28;20179;-70
2024/03/06 02:31:19;;;;;;;22.30;13.13;;;5.80;99.90;;;;;;5012605;28;20263;-69
2024/03/06 02:33:49;;;;;;;22.93;12.57;;;5.90;99.90;;;;;;5007114;28;20426;-67
2024/03/06 02:36:18;;;;;;;24.57;14.23;;;6.00;99.90;;;;;;5012934;28;20430;-69
2024/03/06 02:38:45;;;;;;;23.77;13.73;;;6.10;99.90;;;;;;5013510;28;20540;-68
2024/03/06 02:41:10;;;;;;;23.63;13.73;;;6.20;99.90;;;;;;5011974;28;20825;-69
2024/03/06 02:43:37;;;;;;;28.73;16.23;;;6.20;99.90;;;;;;4985016;28;20482;-68
2024/03/06 02:46:03;;;;;;;28.07;16.23;;;6.30;99.90;;;;;;5010977;28;20257;-68
2024/03/06 02:48:29;;;;;;;25.93;14.03;;;6.30;99.90;;;;;;5010611;28;20413;-69
2024/03/06 02:50:55;;;;;;;22.80;14.47;;;6.30;99.90;;;;;;5010595;28;20750;-69
2024/03/06 02:53:21;;;;;;;21.33;13.60;;;6.40;99.90;;;;;;5013185;28;20182;-69
2024/03/06 02:55:47;;;;;;;20.43;13.40;;;6.40;99.90;;;;;;5013236;28;20630;-68
2024/03/06 02:58:13;;;;;;;19.70;12.20;;;6.40;99.90;;;;;;5001231;28;20508;-69
2024/03/06 03:00:43;;;;;;;21.50;12.60;;;6.40;99.90;;;;;;5011519;28;20426;-69
2024/03/06 03:03:09;;;;;;;25.87;13.37;;;6.40;99.90;;;;;;5011394;28;20211;-69
2024/03/06 03:05:36;;;;;;;17.73;11.30;;;6.40;99.90;;;;;;5008144;28;20817;-68
2024/03/06 03:08:03;;;;;;;20.63;13.53;;;6.30;99.90;;;;;;5013288;28;20420;-68
2024/03/06 03:10:29;;;;;;;18.53;11.40;;;6.30;99.90;;;;;;5013217;28;20993;-68
2024/03/06 03:12:55;;;;;;;18.73;11.80;;;6.30;99.90;;;;;;5004939;28;20418;-68
2024/03/06 03:15:21;;;;;;;18.23;12.37;;;6.30;99.90;;;;;;5007230;28;20493;-68
2024/03/06 03:17:46;;;;;;;20.50;13.90;;;6.20;99.90;;;;;;5012889;28;20269;-71
2024/03/06 03:20:12;;;;;;;19.77;11.50;;;6.20;99.90;;;;;;5007856;28;20433;-68
2024/03/06 03:22:39;;;;;;;15.37;10.67;;;6.10;99.90;;;;;;5011714;28;20242;-69
2024/03/06 03:25:12;;;;;;;17.97;10.90;;;6.00;99.90;;;;;;5013395;28;20195;-70
2024/03/06 03:27:41;;;;;;;13.90;9.90;;;5.90;99.90;;;;;;5006568;28;20474;-70
2024/03/06 03:30:10;;;;;;;18.50;11.13;;;5.90;99.90;;;;;;5012110;28;20505;-67
2024/03/06 03:32:36;;;;;;;18.43;12.63;;;5.80;99.90;;;;;;5016231;28;20421;-68
2024/03/06 03:35:03;;;;;;;18.20;10.87;;;5.70;99.90;;;;;;5010879;28;20422;-67
2024/03/06 03:37:28;;;;;;;16.20;10.70;;;5.60;99.90;;;;;;5016750;28;20769;-69
2024/03/06 03:39:54;;;;;;;16.27;9.87;;;5.60;99.90;;;;;;5016479;28;20450;-69
2024/03/06 03:42:20;;;;;;;11.47;8.30;;;5.50;99.90;;;;;;5010970;28;20216;-69
2024/03/06 03:44:45;;;;;;;13.43;8.77;;;5.40;99.90;;;;;;5014277;28;20219;-69
2024/03/06 03:47:12;;;;;;;14.27;9.50;;;5.40;99.90;;;;;;5013287;28;20215;-67
2024/03/06 03:49:38;;;;;;;18.23;10.80;;;5.30;99.90;;;;;;5010265;28;20249;-67
2024/03/06 03:52:03;;;;;;;14.90;10.47;;;5.30;99.90;;;;;;5010306;28;20454;-68
2024/03/06 03:54:29;;;;;;;18.83;12.23;;;5.30;99.90;;;;;;5015721;28;20460;-68
2024/03/06 03:56:54;;;;;;;18.07;11.30;;;5.30;99.90;;;;;;5012269;28;20211;-69
2024/03/06 03:59:20;;;;;;;17.13;10.93;;;5.30;99.90;;;;;;5011252;28;20596;-69
2024/03/06 04:01:50;;;;;;;18.37;11.27;;;5.20;99.90;;;;;;5016592;28;20616;-68
2024/03/06 04:04:15;;;;;;;15.80;10.60;;;5.30;99.90;;;;;;5004301;28;20607;-68
2024/03/06 04:06:41;;;;;;;12.80;8.50;;;5.30;99.90;;;;;;5014038;28;20445;-68
2024/03/06 04:09:09;;;;;;;14.53;9.40;;;5.20;99.90;;;;;;5013207;28;20211;-68
2024/03/06 04:11:38;;;;;;;12.10;8.80;;;5.10;99.90;;;;;;5013009;28;20618;-67
2024/03/06 04:14:06;;;;;;;11.23;8.10;;;5.10;99.90;;;;;;5011008;28;20429;-68
2024/03/06 04:16:32;;;;;;;9.97;7.40;;;5.10;99.90;;;;;;5015905;28;20434;-69
2024/03/06 04:18:57;;;;;;;9.70;6.47;;;5.10;99.90;;;;;;5009007;28;20845;-70
2024/03/06 04:21:23;;;;;;;7.47;5.93;;;5.10;99.90;;;;;;5013910;28;20525;-69
2024/03/06 04:23:49;;;;;;;7.47;5.10;;;5.10;99.90;;;;;;5012038;28;20225;-69
2024/03/06 04:26:14;;;;;;;7.00;5.10;;;5.10;99.90;;;;;;5015963;28;20202;-68
2024/03/06 04:28:40;;;;;;;8.53;4.83;;;5.20;99.90;;;;;;5011841;28;20321;-68
2024/03/06 04:31:05;;;;;;;10.43;5.83;;;5.30;99.90;;;;;;5010384;28;20179;-69
2024/03/06 04:33:31;;;;;;;9.20;6.50;;;5.30;99.90;;;;;;5010133;28;20329;-69
2024/03/06 04:35:57;;;;;;;7.83;6.17;;;5.40;99.90;;;;;;5015826;28;20285;-71
2024/03/06 04:38:22;;;;;;;7.43;5.80;;;5.40;99.90;;;;;;5013135;28;20187;-69
2024/03/06 04:40:48;;;;;;;8.77;5.90;;;5.50;99.90;;;;;;5015526;28;20245;-69
2024/03/06 04:43:13;;;;;;;8.23;5.73;;;5.50;99.90;;;;;;5006046;28;20595;-67
2024/03/06 04:45:39;;;;;;;7.73;4.23;;;5.40;99.90;;;;;;5010155;28;20187;-70
2024/03/06 04:48:06;;;;;;;5.87;4.27;;;5.50;99.90;;;;;;5014031;28;20223;-68
2024/03/06 04:50:32;;;;;;;5.07;4.23;;;5.50;99.90;;;;;;5015598;28;20219;-71
2024/03/06 04:52:58;;;;;;;5.20;3.70;;;5.50;99.90;;;;;;4987831;28;20433;-68
2024/03/06 04:55:24;;;;;;;4.57;3.47;;;5.50;99.90;;;;;;5010453;28;20426;-69
2024/03/06 04:57:52;;;;;;;4.60;3.00;;;5.50;99.90;;;;;;5007229;28;20196;-69
2024/03/06 05:00:18;;;;;;;5.43;3.50;;;5.50;99.90;;;;;;5010798;28;20876;-69
2024/03/06 05:02:44;;;;;;;4.50;3.60;;;5.50;99.90;;;;;;5014955;28;20481;-68
2024/03/06 05:05:09;;;;;;;6.90;3.67;;;5.50;99.90;;;;;;5006787;28;20285;-69
2024/03/06 05:07:35;;;;;;;5.20;4.17;;;5.50;99.90;;;;;;5017220;28;20207;-69
2024/03/06 05:10:01;;;;;;;3.83;2.50;;;5.40;99.90;;;;;;5017644;28;20245;-69
2024/03/06 05:12:27;;;;;;;3.77;2.63;;;5.40;99.90;;;;;;5012457;28;20259;-69
2024/03/06 05:14:54;;;;;;;8.40;5.40;;;5.40;99.90;;;;;;5010353;28;20490;-70
2024/03/06 05:17:20;;;;;;;4.10;3.70;;;5.40;99.90;;;;;;5017885;28;20517;-69
2024/03/06 05:19:49;;;;;;;3.90;2.97;;;5.40;99.90;;;;;;5018340;28;20458;-69
2024/03/06 05:22:15;;;;;;;4.83;3.37;;;5.40;99.90;;;;;;5016653;28;20478;-69
2024/03/06 05:24:44;;;;;;;5.40;3.60;;;5.50;99.90;;;;;;5018091;28;20853;-70
2024/03/06 05:27:13;;;;;;;4.93;2.90;;;5.50;99.90;;;;;;5016343;28;20461;-68
2024/03/06 05:29:39;;;;;;;4.37;2.73;;;5.50;99.90;;;;;;5006179;28;20426;-69
2024/03/06 05:32:06;;;;;;;3.10;2.50;;;5.50;99.90;;;;;;5017202;28;20446;-69
2024/03/06 05:34:33;;;;;;;3.70;2.70;;;5.60;99.90;;;;;;5011440;28;20696;-70
2024/03/06 05:36:59;;;;;;;4.83;3.53;;;5.60;99.90;;;;;;5017033;28;20438;-69
2024/03/06 05:39:25;;;;;;;5.43;3.30;;;5.50;99.90;;;;;;5016624;28;20438;-68
2024/03/06 05:41:50;;;;;;;5.23;3.10;;;5.50;99.90;;;;;;5013399;28;20885;-69
2024/03/06 05:44:16;;;;;;;4.23;3.33;;;5.40;99.90;;;;;;5008762;28;20612;-69
2024/03/06 05:46:41;;;;;;;5.30;3.50;;;5.40;99.90;;;;;;5012337;28;20223;-70
2024/03/06 05:49:07;;;;;;;3.60;3.03;;;5.30;99.90;;;;;;5008005;28;20191;-68
2024/03/06 05:51:32;;;;;;;5.93;3.50;;;5.10;99.90;;;;;;5015626;28;20219;-69
2024/03/06 05:53:58;;;;;;;3.73;2.80;;;5.10;99.90;;;;;;5016114;28;20266;-70
2024/03/06 05:56:24;;;;;;;4.53;3.13;;;5.00;99.90;;;;;;5017065;28;20215;-69
2024/03/06 05:58:49;;;;;;;4.00;2.93;;;4.90;99.90;;;;;;5008645;28;20479;-71
2024/03/06 06:01:18;;;;;;;4.50;2.70;;;4.90;99.90;;;;;;5018504;28;20222;-71
2024/03/06 06:03:48;;;;;;;3.23;2.50;;;4.90;99.90;;;;;;5008147;28;20622;-68
2024/03/06 06:06:19;;;;;;;4.20;2.87;;;4.90;99.90;;;;;;4992674;28;20839;-70
2024/03/06 06:08:45;;;;;;;3.77;2.83;;;4.90;99.90;;;;;;5016939;28;20414;-70
2024/03/06 06:11:11;;;;;;;5.10;2.40;;;4.90;99.90;;;;;;5016891;28;20717;-69
2024/03/06 06:13:37;;;;;;;2.80;2.30;;;4.90;99.90;;;;;;5010904;28;20738;-69
2024/03/06 06:16:02;;;;;;;3.40;2.87;;;4.90;99.90;;;;;;5017673;28;20449;-72
2024/03/06 06:18:28;;;;;;;2.80;2.40;;;4.90;99.90;;;;;;5013117;28;20430;-69
2024/03/06 06:20:54;;;;;;;2.70;2.37;;;4.90;99.90;;;;;;4982508;28;20188;-72
2024/03/06 06:23:19;;;;;;;4.03;2.23;;;4.90;99.90;;;;;;5016774;28;20257;-70
2024/03/06 06:25:45;;;;;;;3.70;2.60;;;4.80;99.90;;;;;;5018401;28;20211;-71
2024/03/06 06:28:11;;;;;;;4.50;2.20;;;4.80;99.90;;;;;;5011608;28;20203;-68
2024/03/06 06:30:38;;;;;;;3.47;2.50;;;4.80;99.90;;;;;;5015712;28;20183;-70
2024/03/06 06:33:04;;;;;;;5.03;4.17;;;4.90;99.90;;;;;;5016507;28;20183;-70
2024/03/06 06:35:30;;;;;;;7.33;4.33;;;4.90;99.90;;;;;;5014587;28;20429;-70
2024/03/06 06:37:55;;;;;;;7.50;4.00;;;4.90;99.90;;;;;;5014093;28;20709;-69
2024/03/06 06:40:21;;;;;;;7.10;4.33;;;4.90;99.90;;;;;;5017290;28;20195;-71
2024/03/06 06:42:49;;;;;;;5.47;4.20;;;4.90;99.90;;;;;;5013432;28;20219;-72
2024/03/06 06:45:24;;;;;;;5.20;3.97;;;4.90;99.90;;;;;;5017479;28;20664;-69
2024/03/06 06:47:51;;;;;;;8.60;4.47;;;4.90;99.90;;;;;;5016131;28;20412;-72
2024/03/06 06:50:18;;;;;;;6.27;4.77;;;5.00;99.90;;;;;;5014589;28;20505;-70
2024/03/06 06:52:43;;;;;;;6.43;4.90;;;5.00;99.90;;;;;;5014909;28;20418;-72
2024/03/06 06:55:11;;;;;;;7.97;4.50;;;5.00;99.90;;;;;;5012052;28;20434;-71
2024/03/06 06:57:37;;;;;;;4.93;3.77;;;5.10;99.90;;;;;;5016841;28;20210;-71
2024/03/06 07:00:10;;;;;;;6.80;4.30;;;5.10;99.90;;;;;;5019988;28;20417;-71
2024/03/06 07:02:40;;;;;;;5.03;3.37;;;5.10;99.90;;;;;;4996101;28;20470;-69
2024/03/06 07:05:08;;;;;;;6.27;4.67;;;5.10;99.90;;;;;;4981467;28;20434;-74
2024/03/06 07:07:33;;;;;;;5.77;3.77;;;5.10;99.90;;;;;;5023440;28;20444;-71
2024/03/06 07:09:59;;;;;;;4.90;4.07;;;5.10;99.90;;;;;;5025720;28;20469;-70
2024/03/06 07:12:25;;;;;;;6.97;3.80;;;5.20;99.90;;;;;;5003920;28;20729;-72
2024/03/06 07:14:50;;;;;;;6.33;4.10;;;5.20;99.90;;;;;;5025298;28;20191;-69
2024/03/06 07:17:16;;;;;;;6.00;3.90;;;5.30;99.90;;;;;;5026477;28;20207;-71
2024/03/06 07:19:42;;;;;;;7.00;3.90;;;5.30;99.90;;;;;;5022945;28;20206;-72
2024/03/06 07:22:07;;;;;;;4.50;3.20;;;5.40;99.90;;;;;;5023583;28;20202;-73
2024/03/06 07:24:33;;;;;;;4.97;4.00;;;5.50;99.90;;;;;;5027720;28;20211;-73
2024/03/06 07:27:01;;;;;;;5.60;4.07;;;5.50;99.90;;;;;;5024446;28;20231;-71
2024/03/06 07:29:27;;;;;;;5.50;3.73;;;5.60;99.90;;;;;;4992751;28;20202;-74
2024/03/06 07:31:53;;;;;;;4.27;3.47;;;5.60;99.90;;;;;;4971624;28;20895;-72
2024/03/06 07:34:21;;;;;;;6.23;4.43;;;5.70;99.90;;;;;;5012769;28;20427;-70
2024/03/06 07:36:47;;;;;;;4.70;3.80;;;5.80;99.90;;;;;;5017080;28;20917;-71
2024/03/06 07:39:16;;;;;;;4.70;3.57;;;5.80;99.90;;;;;;5022359;28;20426;-76
2024/03/06 07:41:42;;;;;;;7.63;3.90;;;5.90;99.90;;;;;;5021553;28;20453;-71
2024/03/06 07:44:08;;;;;;;8.40;3.37;;;5.90;99.90;;;;;;5010092;28;20992;-72
2024/03/06 07:46:34;;;;;;;7.07;4.30;;;6.00;99.90;;;;;;5011645;28;20214;-70
2024/03/06 07:49:02;;;;;;;4.90;4.23;;;6.20;99.90;;;;;;5015134;28;20415;-72
2024/03/06 07:51:34;;;;;;;7.13;5.10;;;6.20;99.90;;;;;;4990482;28;20490;-72
2024/03/06 07:54:00;;;;;;;6.37;3.97;;;6.30;99.90;;;;;;5016843;28;20691;-71
2024/03/06 07:56:26;;;;;;;6.90;3.83;;;6.40;99.90;;;;;;4995508;28;20913;-71
2024/03/06 07:58:53;;;;;;;5.37;4.60;;;6.40;99.90;;;;;;4991580;28;20423;-71
2024/03/06 08:01:20;;;;;;;5.27;4.20;;;6.40;99.90;;;;;;5018068;28;20418;-72
2024/03/06 08:03:46;;;;;;;7.00;4.60;;;6.40;99.90;;;;;;5014911;28;20758;-75
2024/03/06 08:06:14;;;;;;;6.33;4.97;;;6.50;99.90;;;;;;5020553;28;20434;-72
2024/03/06 08:08:41;;;;;;;10.33;6.40;;;6.50;99.90;;;;;;5022592;28;20497;-71
2024/03/06 08:11:10;;;;;;;6.23;5.50;;;6.60;99.90;;;;;;4989489;28;20408;-74
2024/03/06 08:13:36;;;;;;;8.30;5.43;;;6.70;99.90;;;;;;5012861;28;20785;-72
2024/03/06 08:16:03;;;;;;;12.17;5.37;;;6.80;99.90;;;;;;5006590;28;20529;-71
2024/03/06 08:18:29;;;;;;;9.63;6.23;;;6.80;99.90;;;;;;5012001;28;20472;-73
2024/03/06 08:20:56;;;;;;;7.77;5.50;;;6.80;99.90;;;;;;5024859;28;20541;-71
2024/03/06 08:23:23;;;;;;;8.10;6.87;;;6.90;99.90;;;;;;5010599;28;20502;-73
2024/03/06 08:25:49;;;;;;;8.50;5.73;;;6.90;99.90;;;;;;5018709;28;20275;-73
2024/03/06 08:28:15;;;;;;;9.13;6.67;;;7.00;99.90;;;;;;4997424;28;20426;-71
2024/03/06 08:30:41;;;;;;;9.70;6.20;;;7.10;99.90;;;;;;5018210;28;20871;-72
2024/03/06 08:33:07;;;;;;;11.20;7.00;;;7.30;99.90;;;;;;5020087;28;20418;-72
2024/03/06 08:35:32;;;;;;;11.10;6.07;;;7.40;99.90;;;;;;5014208;28;20532;-71
2024/03/06 08:37:58;;;;;;;10.23;7.77;;;7.50;99.90;;;;;;5018235;28;20305;-71
2024/03/06 08:40:25;;;;;;;11.63;8.13;;;7.40;99.90;;;;;;5021135;28;20185;-73
2024/03/06 08:42:51;;;;;;;12.90;7.60;;;7.50;99.90;;;;;;4985485;28;20204;-71
2024/03/06 08:45:17;;;;;;;10.23;8.03;;;7.50;99.90;;;;;;4987392;28;20748;-75
2024/03/06 08:47:47;;;;;;;12.40;8.30;;;7.50;99.90;;;;;;4994453;28;20211;-69
2024/03/06 08:50:14;;;;;;;14.30;7.70;;;7.50;99.90;;;;;;5021854;28;20438;-71
2024/03/06 08:52:41;;;;;;;9.87;7.70;;;7.40;99.90;;;;;;4997629;28;20434;-75
2024/03/06 08:55:07;;;;;;;8.60;6.20;;;7.50;99.90;;;;;;5005012;28;20738;-74
2024/03/06 08:57:33;;;;;;;6.97;5.43;;;7.50;99.90;;;;;;4988635;28;20889;-71
2024/03/06 08:59:59;;;;;;;8.73;6.87;;;7.60;99.90;;;;;;5020163;28;20477;-71
2024/03/06 09:02:25;;;;;;;11.47;8.90;;;7.60;99.90;;;;;;4991893;28;20493;-69
2024/03/06 09:04:52;;;;;;;9.90;7.03;;;7.70;99.90;;;;;;4986619;28;20422;-71
2024/03/06 09:07:18;;;;;;;13.90;8.73;;;7.70;99.90;;;;;;4988619;28;20215;-71
2024/03/06 09:09:44;;;;;;;12.53;7.90;;;7.80;99.90;;;;;;4987006;28;20941;-71
2024/03/06 09:12:10;;;;;;;12.47;7.30;;;7.90;99.90;;;;;;4971888;28;20423;-72
2024/03/06 09:14:39;;;;;;;15.37;8.33;;;7.90;99.90;;;;;;5010118;28;20418;-71
2024/03/06 09:17:06;;;;;;;12.33;8.43;;;7.90;99.90;;;;;;4989285;28;20478;-73
2024/03/06 09:19:32;;;;;;;18.77;11.37;;;8.00;99.90;;;;;;5011903;28;20496;-73
2024/03/06 09:21:59;;;;;;;16.40;9.27;;;8.10;99.90;;;;;;4993027;28;20446;-74
2024/03/06 09:24:25;;;;;;;10.57;8.20;;;8.10;99.90;;;;;;5005011;28;20630;-75
2024/03/06 09:26:51;;;;;;;10.10;7.77;;;8.20;99.90;;;;;;5007742;28;20499;-73
2024/03/06 09:29:16;;;;;;;12.20;8.10;;;8.20;99.90;;;;;;4995521;28;20170;-71
2024/03/06 09:31:43;;;;;;;11.67;8.00;;;8.30;99.90;;;;;;5020934;28;20586;-71
2024/03/06 09:34:12;;;;;;;11.20;7.30;;;8.30;99.90;;;;;;4972534;28;20590;-73
2024/03/06 09:36:45;;;;;;;9.07;7.00;;;8.40;99.90;;;;;;5018982;28;20456;-71
2024/03/06 09:39:12;;;;;;;13.40;7.33;;;8.40;99.90;;;;;;5021759;28;20440;-72
2024/03/06 09:41:41;;;;;;;8.20;6.30;;;8.40;99.90;;;;;;5021261;28;20418;-70
2024/03/06 09:44:07;;;;;;;7.67;5.93;;;8.60;99.90;;;;;;5011927;28;20474;-73
2024/03/06 09:46:34;;;;;;;8.80;5.87;;;8.60;99.90;;;;;;5018906;28;20521;-74
2024/03/06 09:49:02;;;;;;;7.73;6.20;;;8.70;99.90;;;;;;5012821;28;20429;-72
2024/03/06 09:51:28;;;;;;;6.23;5.40;;;8.80;99.90;;;;;;4993190;28;20465;-72
2024/03/06 09:53:54;;;;;;;9.30;6.13;;;8.80;99.90;;;;;;5014794;28;20441;-73
2024/03/06 09:56:20;;;;;;;10.97;7.67;;;8.90;99.90;;;;;;4996400;28;20731;-72
2024/03/06 09:58:46;;;;;;;10.03;7.77;;;8.90;99.90;;;;;;5009323;28;20529;-75
2024/03/06 10:01:13;;;;;;;11.87;8.53;;;9.00;99.90;;;;;;5017194;28;20194;-72
2024/03/06 10:03:42;;;;;;;9.43;7.33;;;9.00;99.90;;;;;;4998255;28;20462;-71
2024/03/06 10:06:08;;;;;;;10.53;7.13;;;9.10;99.90;;;;;;5018149;28;20442;-72
2024/03/06 10:08:34;;;;;;;8.37;6.40;;;9.00;99.90;;;;;;5019730;28;20422;-72
2024/03/06 10:11:00;;;;;;;9.87;7.17;;;9.10;99.90;;;;;;5019667;28;20422;-72
2024/03/06 10:13:26;;;;;;;10.70;7.03;;;9.20;99.90;;;;;;4989905;28;20434;-72
2024/03/06 10:16:01;;;;;;;13.77;8.37;;;9.20;99.90;;;;;;5018669;28;20473;-70
2024/03/06 10:18:30;;;;;;;17.03;8.20;;;9.30;99.90;;;;;;5016941;28;20421;-75
2024/03/06 10:20:56;;;;;;;14.33;7.20;;;9.30;99.90;;;;;;4994919;28;20480;-73
2024/03/06 10:23:23;;;;;;;10.77;7.80;;;9.30;99.90;;;;;;5017529;28;20746;-71
2024/03/06 10:25:50;;;;;;;10.23;7.67;;;9.40;99.90;;;;;;5016257;28;20442;-72
2024/03/06 10:28:22;;;;;;;8.47;7.57;;;9.50;99.90;;;;;;5001293;28;20485;-71
2024/03/06 10:30:49;;;;;;;13.33;9.80;;;9.70;99.90;;;;;;5017903;28;20497;-74
2024/03/06 10:33:18;;;;;;;9.47;7.53;;;9.70;99.90;;;;;;4991008;28;20436;-71
2024/03/06 10:35:45;;;;;;;10.37;7.17;;;9.80;99.90;;;;;;5011630;28;20457;-70
2024/03/06 10:38:11;;;;;;;10.10;7.70;;;9.90;99.90;;;;;;5014925;28;20925;-70
2024/03/06 10:40:38;;;;;;;14.73;10.77;;;10.10;99.90;;;;;;5004656;28;20413;-72
2024/03/06 10:43:07;;;;;;;13.30;9.40;;;10.20;99.90;;;;;;5016970;28;20799;-75
2024/03/06 10:46:06;;;;;;;10.13;8.77;;;10.30;99.90;;;;;;5007631;28;20570;-70
2024/03/06 10:48:31;;;;;;;12.27;9.30;;;10.30;99.90;;;;;;5001655;28;20433;-71
2024/03/06 10:50:59;;;;;;;17.23;10.70;;;10.40;99.90;;;;;;5019712;28;20564;-71
2024/03/06 10:53:27;;;;;;;13.00;9.70;;;10.60;99.90;;;;;;5025764;28;20219;-72
2024/03/06 10:55:55;;;;;;;14.53;9.57;;;10.60;99.90;;;;;;4978833;28;20454;-73
2024/03/06 10:58:21;;;;;;;12.30;8.13;;;10.70;99.90;;;;;;5013149;28;20557;-71
2024/03/06 11:00:47;;;;;;;11.33;8.50;;;10.80;99.90;;;;;;5026979;28;20425;-75
2024/03/06 11:03:14;;;;;;;14.07;10.67;;;10.90;99.90;;;;;;5002171;28;20473;-72
2024/03/06 11:05:46;;;;;;;13.40;8.13;;;10.90;99.90;;;;;;5024100;28;20484;-73
2024/03/06 11:08:13;;;;;;;14.23;10.00;;;10.90;99.90;;;;;;5022462;28;20415;-73
2024/03/06 11:10:41;;;;;;;13.37;10.40;;;10.90;99.90;;;;;;4999279;28;20414;-72
2024/03/06 11:13:24;;;;;;;13.43;10.87;;;10.90;99.90;;;;;;4998083;28;20886;-74
2024/03/06 11:15:52;;;;;;;16.33;11.87;;;10.90;99.90;;;;;;4993086;28;20915;-73
2024/03/06 11:18:29;;;;;;;16.20;11.97;;;11.00;99.90;;;;;;5017230;28;20692;-74
2024/03/06 11:21:04;;;;;;;16.63;12.53;;;11.10;99.90;;;;;;5002688;28;20705;-72
2024/03/06 11:23:33;;;;;;;15.47;11.30;;;11.10;99.90;;;;;;4997784;28;20565;-72
2024/03/06 11:26:03;;;;;;;14.77;11.60;;;11.20;99.90;;;;;;4993744;28;20753;-71
2024/03/06 11:28:34;;;;;;;16.83;13.70;;;11.30;99.90;;;;;;5015502;28;20416;-73
2024/03/06 11:31:02;;;;;;;18.63;14.97;;;11.30;99.90;;;;;;4998117;28;20422;-71
2024/03/06 11:33:52;;;;;;;20.50;14.50;;;11.40;99.90;;;;;;5011824;28;20524;-74
2024/03/06 11:36:28;;;;;;;15.93;11.90;;;11.40;99.90;;;;;;4981662;28;20742;-74
2024/03/06 11:39:01;;;;;;;16.40;12.10;;;11.30;99.90;;;;;;5017884;28;20438;-73
2024/03/06 11:41:31;;;;;;;19.33;15.03;;;11.10;99.90;;;;;;5009455;28;20441;-70
2024/03/06 11:44:00;;;;;;;16.37;12.27;;;11.10;99.90;;;;;;5020341;28;20450;-73
2024/03/06 11:46:48;;;;;;;15.27;11.97;;;10.90;99.90;;;;;;4983617;28;20445;-73
2024/03/06 11:49:20;;;;;;;15.00;10.93;;;10.80;99.90;;;;;;5019872;28;20433;-72
2024/03/06 11:51:47;;;;;;;14.67;10.83;;;10.80;99.90;;;;;;5019819;28;20458;-73
2024/03/06 11:54:13;;;;;;;17.90;14.20;;;10.70;99.90;;;;;;5003982;28;20431;-75
2024/03/06 11:56:40;;;;;;;17.00;13.37;;;10.70;99.90;;;;;;5000526;28;20451;-74
2024/03/06 11:59:09;;;;;;;20.37;15.07;;;10.80;99.90;;;;;;5017267;28;20862;-75
2024/03/06 12:01:36;;;;;;;15.27;11.63;;;10.70;99.90;;;;;;5026131;28;20419;-72
2024/03/06 12:04:04;;;;;;;15.13;12.20;;;10.60;99.90;;;;;;5015476;28;20477;-73
2024/03/06 12:06:31;;;;;;;13.47;10.47;;;10.60;99.90;;;;;;4981773;28;20511;-72
2024/03/06 12:08:58;;;;;;;16.97;13.00;;;10.70;99.90;;;;;;5024638;28;20522;-74
2024/03/06 12:11:25;;;;;;;19.60;11.40;;;10.90;99.90;;;;;;5024219;28;20457;-73
2024/03/06 12:13:55;;;;;;;14.47;11.43;;;11.00;99.90;;;;;;5029080;28;20414;-73
2024/03/06 12:16:21;;;;;;;14.50;12.00;;;11.00;99.90;;;;;;5023919;28;20443;-72
2024/03/06 12:18:53;;;;;;;17.80;13.30;;;11.10;99.90;;;;;;4995021;28;20433;-72
2024/03/06 12:21:19;;;;;;;14.60;11.87;;;11.30;99.90;;;;;;4974407;28;20286;-75
2024/03/06 12:23:44;;;;;;;16.97;11.10;;;11.30;99.90;;;;;;5007472;28;20485;-72
2024/03/06 12:26:10;;;;;;;13.23;10.10;;;11.40;99.90;;;;;;5007397;28;20246;-74
2024/03/06 12:28:38;;;;;;;16.70;13.10;;;11.50;99.90;;;;;;5026599;28;20185;-73
2024/03/06 12:31:04;;;;;;;17.73;12.53;;;11.70;98.80;;;;;;5010998;28;20431;-74
2024/03/06 12:33:31;;;;;;;15.30;11.70;;;11.80;98.20;;;;;;5004710;28;20492;-74
2024/03/06 12:36:10;;;;;;;15.30;11.50;;;11.90;97.30;;;;;;5022817;28;20442;-75
2024/03/06 12:38:37;;;;;;;16.57;11.93;;;11.80;96.80;;;;;;5008783;28;20464;-74
2024/03/06 12:41:04;;;;;;;18.87;11.77;;;11.70;96.60;;;;;;4995363;28;20428;-71
2024/03/06 12:43:30;;;;;;;17.80;11.70;;;11.80;96.60;;;;;;5023927;28;20492;-74